Theodore, Alabama
Current Conditions -  °F | °C
As of 5:53 AM on Monday 24 Nov 2014 (Local Time) from KBFM Reporting Station
Overcast Overcast  
Wind Chill: 71°   Ceiling: 2200
Heat Index: 71°   Visibility: 10mi
Dew Point: 68°   Wind: 5mph
Humidity: 90%   Direction: NA
Pressure: 29.81"   Gusts: NA
Location:  30.55°N, 88.18°W
Report Text: KBFM 241153Z AUTO VRB04KT 10SM SCT014 OVC022 22/20 A2981 RMK AO2 SLP093 70031 T02170200 10217 20183 53012
Loading
Personal Weather Stations






























Interactive Weather Map New forecast layout! Learn more

10-Day Weather Forecast

Advertisements
Track Severe Weather on mobile